• Join FlightAware (Why Join?)
  • Login
  • US Flag 
08:07AM EDT


 

Airport Tracker/Info


-or-


 

Live Flight TrackerFlight Track Log ✈ SWA414 ✈ 15-Oct-2013 ✈ KOAK - KSAN

Flight Track Log - Related Links

Times and Time Zones

All times are in EDT time to prevent confusion due to time zone crossing. See the SWA414 flight status page for this flight to view local times or setup timezone preferences in your user account.

Time Position Orientation Groundspeed Altitude Reporting Facility
EDT Latitude Longitude Course Direction KTS MPH feet Rate Location/Type
09:19PM 37.7511 -122.3350 291° West 226 260 4,400  Level Oakland Center
09:20PM 37.7125 -122.4067 236° Southwest 277 319 7,400 2,940 Climbing Oakland Center
09:21PM 37.6433 -122.4664 214° Southwest 297 342 10,400 2,400 Climbing Oakland Center
09:22PM 37.5522 -122.5072 200° South 356 410 12,300 1,980 Climbing Oakland Center
09:23PM 37.4431 -122.5178 184° South 389 448 14,500 2,340 Climbing Oakland Center
09:24PM 37.3267 -122.5303 185° South 413 475 17,100 2,340 Climbing Oakland Center
09:25PM 37.2083 -122.5439 185° South 428 493 19,300 1,920 Climbing Oakland Center
09:26PM 37.0869 -122.5569 185° South 437 503 21,100 1,860 Climbing Oakland Center
09:27PM 36.9661 -122.5308 170° South 459 528 23,100 1,740 Climbing Oakland Center
09:28PM 36.8669 -122.4306 141° Southeast 453 521 24,700 1,380 Climbing Oakland Center
09:29PM 36.7625 -122.3258 141° Southeast 474 545 26,000 1,560 Climbing Oakland Center
09:31PM 36.5614 -122.1364 143° Southeast 485 558 29,200 1,620 Climbing Los Angeles Center
09:32PM 36.4572 -122.0358 142° Southeast 478 550 30,700 1,500 Climbing Los Angeles Center
09:33PM 36.3322 -121.9131 142° Southeast 478 550 32,300 1,380 Climbing Los Angeles Center
09:34PM 36.2136 -121.7869 139° Southeast 474 545 33,900 1,200 Climbing Oakland Center
09:35PM 36.1106 -121.6892 143° Southeast 468 539 35,100 1,080 Climbing Oakland Center
09:36PM 36.0081 -121.5906 142° Southeast 468 539 36,200 900 Climbing Oakland Center
09:37PM 35.9133 -121.4839 138° Southeast 461 531 37,000 360 Climbing Oakland Center
09:38PM 35.8356 -121.3561 127° Southeast 466 536 37,000  Level Oakland Center
09:39PM 35.7572 -121.2278 127° Southeast 467 537 37,000  Level Oakland Center
09:40PM 35.6769 -121.1022 128° Southeast 468 539 37,000  Level Oakland Center
09:41PM 35.5981 -120.9756 127° Southeast 469 540 37,000  Level Oakland Center
09:42PM 35.5017 -120.8258 128° Southeast 466 536 37,000  Level Oakland Center
09:43PM 35.4225 -120.6997 128° Southeast 469 540 37,000  Level Oakland Center
09:44PM 35.3428 -120.5758 128° Southeast 467 537 37,000  Level Oakland Center
09:45PM 35.2661 -120.4528 127° Southeast 472 543 37,000  Level Oakland Center
09:46PM 35.1869 -120.3286 128° Southeast 470 541 37,000  Level Oakland Center
09:47PM 35.1092 -120.2075 128° Southeast 461 531 37,000  Level Oakland Center
09:49PM 35.0300 -120.0850 128° Southeast 461 531 37,000  Level Oakland Center
09:50PM 34.9336 -119.9364 128° Southeast 467 537 37,000  Level Oakland Center
09:51PM 34.8533 -119.8136 129° Southeast 465 535 37,000  Level Oakland Center
09:52PM 34.7731 -119.6906 128° Southeast 466 536 37,000  Level Oakland Center
09:53PM 34.6931 -119.5661 128° Southeast 467 537 37,000  Level Oakland Center
09:54PM 34.6111 -119.4428 129° Southeast 470 541 37,000  Level Oakland Center
09:55PM 34.5103 -119.2922 129° Southeast 468 539 37,000  Level Los Angeles Center
09:56PM 34.4283 -119.1692 129° Southeast 470 541 37,000  Level Los Angeles Center
09:57PM 34.3450 -119.0461 129° Southeast 472 543 37,000  Level Los Angeles Center
09:58PM 34.2625 -118.9219 129° Southeast 473 544 37,000 -240 Level Los Angeles Center
09:59PM 34.1797 -118.7981 129° Southeast 475 547 36,600 -660 Descending Los Angeles Center
10:00PM 34.0961 -118.6739 129° Southeast 476 548 35,700 -960 Descending Los Angeles Center
10:01PM 34.0128 -118.5500 129° Southeast 476 548 34,700 -1,020 Descending Los Angeles Center
10:02PM 33.9203 -118.4122 129° Southeast 476 548 33,600 -1,020 Descending Los Angeles Center
10:03PM 33.8308 -118.2956 133° Southeast 474 545 32,700 -900 Descending Los Angeles Center
10:04PM 33.7411 -118.1858 135° Southeast 477 549 31,800 -1,740 Descending Los Angeles Center
10:05PM 33.6314 -118.0453 133° Southeast 477 549 29,200 -2,580 Descending Los Angeles Center
10:06PM 33.5453 -117.9364 133° Southeast 459 528 26,600 -2,460 Descending Los Angeles Center
10:07PM 33.4628 -117.8322 133° Southeast 440 506 24,200 -2,580 Descending Los Angeles Center
10:08PM 33.4000 -117.7667 139° Southeast 418 481 22,400 -2,520 Descending Southern California TRACON
10:09PM 33.3333 -117.6833 134° Southeast 406 467 20,400 -2,100 Descending Southern California TRACON
10:09PM 33.3056 -117.6336 124° Southeast 411 473 19,400 -2,220 Descending Los Angeles Center
10:10PM 33.2281 -117.5431 136° Southeast 397 457 17,000 -2,340 Descending Los Angeles Center
10:11PM 33.1419 -117.4706 145° Southeast 382 440 14,700 -2,280 Descending Los Angeles Center
10:12PM 33.0561 -117.4039 147° Southeast 373 429 12,400 -2,340 Descending Los Angeles Center
10:13PM 33.0000 -117.3500 141° Southeast 356 410 11,200 -1,560 Descending Southern California TRACON
10:14PM 32.9167 -117.3000 153° Southeast 320 368 10,100 -1,260 Descending Southern California TRACON
10:15PM 32.8500 -117.2500 148° Southeast 307 353 8,900 -1,200 Descending Southern California TRACON
10:15PM 32.8172 -117.2122 136° Southeast 314 361 8,200 -1,560 Descending Los Angeles Center
10:16PM 32.7944 -117.1300 108° East 283 326 6,300 -1,620 Descending Los Angeles Center
10:17PM 32.7767 -117.0442 104° East 271 312 4,900 -720 Descending Los Angeles Center
10:18PM 32.7575 -116.9758 108° East 242 278 4,900 -300 Level Los Angeles Center
10:19PM 32.7081 -116.9836 188° South 217 250 4,300 -960 Descending Los Angeles Center
10:20PM 32.6931 -117.0464 254° West 182 209 3,000 -1,080 Descending Los Angeles Center
10:21PM 32.7100 -117.0911 294° West 162 186 2,100 -1,020 Descending Los Angeles Center
10:22PM 32.7214 -117.1361 287° West 150 173 1,000 -960 Descending Los Angeles Center
10:24PM 32.7336 -117.1839 287° West 145 167 200 -780 Descending Los Angeles Center
10:26PM 32.7336 -117.1897 282° West  Level Estimated